sensor_id;sensor_type;location;lat;lon;timestamp;P1;durP1;ratioP1;P2;durP2;ratioP2
53875;SDS011;39789;53.216;5.624;2023-12-20T00:00:34;14.15;;;5.40;;
53875;SDS011;39789;53.216;5.624;2023-12-20T00:03:02;22.85;;;6.07;;
53875;SDS011;39789;53.216;5.624;2023-12-20T00:05:28;16.77;;;5.80;;
53875;SDS011;39789;53.216;5.624;2023-12-20T00:07:54;27.33;;;6.70;;
53875;SDS011;39789;53.216;5.624;2023-12-20T00:10:20;21.35;;;5.75;;
53875;SDS011;39789;53.216;5.624;2023-12-20T00:12:46;18.27;;;5.22;;
53875;SDS011;39789;53.216;5.624;2023-12-20T00:15:12;12.25;;;3.75;;
53875;SDS011;39789;53.216;5.624;2023-12-20T00:17:37;19.90;;;5.95;;
53875;SDS011;39789;53.216;5.624;2023-12-20T00:20:03;20.33;;;5.25;;
53875;SDS011;39789;53.216;5.624;2023-12-20T00:22:30;21.40;;;6.25;;
53875;SDS011;39789;53.216;5.624;2023-12-20T00:24:56;19.73;;;5.20;;
53875;SDS011;39789;53.216;5.624;2023-12-20T00:27:21;17.63;;;5.75;;
53875;SDS011;39789;53.216;5.624;2023-12-20T00:29:48;22.70;;;5.95;;
53875;SDS011;39789;53.216;5.624;2023-12-20T00:32:16;15.13;;;5.50;;
53875;SDS011;39789;53.216;5.624;2023-12-20T00:34:42;16.70;;;5.50;;
53875;SDS011;39789;53.216;5.624;2023-12-20T00:37:08;17.40;;;5.68;;
53875;SDS011;39789;53.216;5.624;2023-12-20T00:39:34;22.73;;;6.35;;
53875;SDS011;39789;53.216;5.624;2023-12-20T00:41:59;19.15;;;5.75;;
53875;SDS011;39789;53.216;5.624;2023-12-20T00:44:25;25.98;;;7.07;;
53875;SDS011;39789;53.216;5.624;2023-12-20T00:46:51;23.17;;;6.72;;
53875;SDS011;39789;53.216;5.624;2023-12-20T00:49:17;27.05;;;6.85;;
53875;SDS011;39789;53.216;5.624;2023-12-20T00:51:42;25.13;;;8.88;;
53875;SDS011;39789;53.216;5.624;2023-12-20T00:54:08;25.10;;;6.10;;
53875;SDS011;39789;53.216;5.624;2023-12-20T00:56:34;18.95;;;6.50;;
53875;SDS011;39789;53.216;5.624;2023-12-20T00:59:00;22.38;;;6.63;;
53875;SDS011;39789;53.216;5.624;2023-12-20T01:01:26;25.85;;;6.72;;
53875;SDS011;39789;53.216;5.624;2023-12-20T01:03:52;25.52;;;5.88;;
53875;SDS011;39789;53.216;5.624;2023-12-20T01:06:18;23.17;;;6.70;;
53875;SDS011;39789;53.216;5.624;2023-12-20T01:08:44;24.23;;;6.93;;
53875;SDS011;39789;53.216;5.624;2023-12-20T01:11:10;23.98;;;6.30;;
53875;SDS011;39789;53.216;5.624;2023-12-20T01:13:35;19.80;;;6.00;;
53875;SDS011;39789;53.216;5.624;2023-12-20T01:16:01;29.25;;;7.10;;
53875;SDS011;39789;53.216;5.624;2023-12-20T01:18:28;27.02;;;6.70;;
53875;SDS011;39789;53.216;5.624;2023-12-20T01:20:53;23.08;;;7.07;;
53875;SDS011;39789;53.216;5.624;2023-12-20T01:23:19;20.67;;;6.75;;
53875;SDS011;39789;53.216;5.624;2023-12-20T01:25:45;19.50;;;5.85;;
53875;SDS011;39789;53.216;5.624;2023-12-20T01:28:10;32.92;;;8.25;;
53875;SDS011;39789;53.216;5.624;2023-12-20T01:30:37;23.48;;;6.70;;
53875;SDS011;39789;53.216;5.624;2023-12-20T01:33:02;26.10;;;7.57;;
53875;SDS011;39789;53.216;5.624;2023-12-20T01:35:28;21.08;;;6.47;;
53875;SDS011;39789;53.216;5.624;2023-12-20T01:37:54;26.52;;;7.10;;
53875;SDS011;39789;53.216;5.624;2023-12-20T01:40:25;22.88;;;6.50;;
53875;SDS011;39789;53.216;5.624;2023-12-20T01:43:00;24.27;;;7.47;;
53875;SDS011;39789;53.216;5.624;2023-12-20T01:45:34;26.15;;;8.07;;
53875;SDS011;39789;53.216;5.624;2023-12-20T01:48:00;27.90;;;7.65;;
53875;SDS011;39789;53.216;5.624;2023-12-20T01:50:27;24.40;;;7.35;;
53875;SDS011;39789;53.216;5.624;2023-12-20T01:52:55;29.83;;;8.25;;
53875;SDS011;39789;53.216;5.624;2023-12-20T01:55:23;23.05;;;7.20;;
53875;SDS011;39789;53.216;5.624;2023-12-20T01:57:50;30.05;;;8.02;;
53875;SDS011;39789;53.216;5.624;2023-12-20T02:00:16;24.63;;;6.88;;
53875;SDS011;39789;53.216;5.624;2023-12-20T02:02:43;21.67;;;7.50;;
53875;SDS011;39789;53.216;5.624;2023-12-20T02:05:10;22.15;;;6.75;;
53875;SDS011;39789;53.216;5.624;2023-12-20T02:07:36;26.65;;;7.03;;
53875;SDS011;39789;53.216;5.624;2023-12-20T02:10:02;30.10;;;7.07;;
53875;SDS011;39789;53.216;5.624;2023-12-20T02:12:29;30.75;;;7.93;;
53875;SDS011;39789;53.216;5.624;2023-12-20T02:14:55;29.73;;;8.10;;
53875;SDS011;39789;53.216;5.624;2023-12-20T02:17:21;28.08;;;7.70;;
53875;SDS011;39789;53.216;5.624;2023-12-20T02:19:48;26.38;;;8.73;;
53875;SDS011;39789;53.216;5.624;2023-12-20T02:22:14;30.25;;;7.22;;
53875;SDS011;39789;53.216;5.624;2023-12-20T02:24:40;27.88;;;8.93;;
53875;SDS011;39789;53.216;5.624;2023-12-20T02:27:06;30.73;;;7.05;;
53875;SDS011;39789;53.216;5.624;2023-12-20T02:29:33;25.60;;;7.25;;
53875;SDS011;39789;53.216;5.624;2023-12-20T02:31:59;26.35;;;6.85;;
53875;SDS011;39789;53.216;5.624;2023-12-20T02:34:28;22.70;;;7.45;;
53875;SDS011;39789;53.216;5.624;2023-12-20T02:36:59;23.13;;;7.57;;
53875;SDS011;39789;53.216;5.624;2023-12-20T02:39:25;30.58;;;7.82;;
53875;SDS011;39789;53.216;5.624;2023-12-20T02:41:51;29.33;;;6.80;;
53875;SDS011;39789;53.216;5.624;2023-12-20T02:44:19;21.55;;;7.28;;
53875;SDS011;39789;53.216;5.624;2023-12-20T02:46:45;28.50;;;7.50;;
53875;SDS011;39789;53.216;5.624;2023-12-20T02:49:11;22.77;;;6.88;;
53875;SDS011;39789;53.216;5.624;2023-12-20T02:51:36;21.88;;;6.47;;
53875;SDS011;39789;53.216;5.624;2023-12-20T02:54:05;27.83;;;7.57;;
53875;SDS011;39789;53.216;5.624;2023-12-20T02:56:31;21.67;;;7.38;;
53875;SDS011;39789;53.216;5.624;2023-12-20T02:59:00;25.45;;;6.82;;
53875;SDS011;39789;53.216;5.624;2023-12-20T03:01:26;24.45;;;7.28;;
53875;SDS011;39789;53.216;5.624;2023-12-20T03:03:53;25.88;;;7.32;;
53875;SDS011;39789;53.216;5.624;2023-12-20T03:06:18;29.52;;;7.80;;
53875;SDS011;39789;53.216;5.624;2023-12-20T03:08:44;23.88;;;7.63;;
53875;SDS011;39789;53.216;5.624;2023-12-20T03:11:10;27.25;;;7.43;;
53875;SDS011;39789;53.216;5.624;2023-12-20T03:13:36;25.73;;;7.50;;
53875;SDS011;39789;53.216;5.624;2023-12-20T03:16:12;23.20;;;7.25;;
53875;SDS011;39789;53.216;5.624;2023-12-20T03:18:38;27.42;;;7.63;;
53875;SDS011;39789;53.216;5.624;2023-12-20T03:21:05;25.00;;;6.78;;
53875;SDS011;39789;53.216;5.624;2023-12-20T03:23:31;28.98;;;7.68;;
53875;SDS011;39789;53.216;5.624;2023-12-20T03:26:01;22.42;;;6.93;;
53875;SDS011;39789;53.216;5.624;2023-12-20T03:28:27;29.05;;;7.22;;
53875;SDS011;39789;53.216;5.624;2023-12-20T03:30:53;20.52;;;6.38;;
53875;SDS011;39789;53.216;5.624;2023-12-20T03:33:19;22.90;;;7.20;;
53875;SDS011;39789;53.216;5.624;2023-12-20T03:35:45;26.67;;;6.50;;
53875;SDS011;39789;53.216;5.624;2023-12-20T03:38:10;30.15;;;7.00;;
53875;SDS011;39789;53.216;5.624;2023-12-20T03:40:36;23.25;;;6.60;;
53875;SDS011;39789;53.216;5.624;2023-12-20T03:43:02;25.15;;;6.85;;
53875;SDS011;39789;53.216;5.624;2023-12-20T03:45:28;25.90;;;6.78;;
53875;SDS011;39789;53.216;5.624;2023-12-20T03:47:54;23.55;;;7.00;;
53875;SDS011;39789;53.216;5.624;2023-12-20T03:50:27;30.50;;;6.75;;
53875;SDS011;39789;53.216;5.624;2023-12-20T03:52:52;20.05;;;6.25;;
53875;SDS011;39789;53.216;5.624;2023-12-20T03:55:18;24.08;;;7.43;;
53875;SDS011;39789;53.216;5.624;2023-12-20T03:57:44;30.60;;;8.30;;
53875;SDS011;39789;53.216;5.624;2023-12-20T04:00:09;25.50;;;7.03;;
53875;SDS011;39789;53.216;5.624;2023-12-20T04:02:39;24.98;;;7.40;;
53875;SDS011;39789;53.216;5.624;2023-12-20T04:05:06;28.60;;;7.72;;
53875;SDS011;39789;53.216;5.624;2023-12-20T04:07:32;21.23;;;7.20;;
53875;SDS011;39789;53.216;5.624;2023-12-20T04:09:59;26.35;;;7.20;;
53875;SDS011;39789;53.216;5.624;2023-12-20T04:12:25;28.48;;;7.90;;
53875;SDS011;39789;53.216;5.624;2023-12-20T04:14:51;25.02;;;7.78;;
53875;SDS011;39789;53.216;5.624;2023-12-20T04:17:19;23.83;;;6.30;;
53875;SDS011;39789;53.216;5.624;2023-12-20T04:19:47;29.15;;;7.90;;
53875;SDS011;39789;53.216;5.624;2023-12-20T04:22:14;23.33;;;6.57;;
53875;SDS011;39789;53.216;5.624;2023-12-20T04:24:39;20.92;;;7.05;;
53875;SDS011;39789;53.216;5.624;2023-12-20T04:27:07;27.13;;;7.40;;
53875;SDS011;39789;53.216;5.624;2023-12-20T04:29:33;24.65;;;8.02;;
53875;SDS011;39789;53.216;5.624;2023-12-20T04:32:00;25.13;;;7.13;;
53875;SDS011;39789;53.216;5.624;2023-12-20T04:34:25;21.98;;;7.07;;
53875;SDS011;39789;53.216;5.624;2023-12-20T04:36:51;26.73;;;7.68;;
53875;SDS011;39789;53.216;5.624;2023-12-20T04:39:17;26.40;;;6.88;;
53875;SDS011;39789;53.216;5.624;2023-12-20T04:41:43;25.70;;;6.80;;
53875;SDS011;39789;53.216;5.624;2023-12-20T04:44:09;25.48;;;7.15;;
53875;SDS011;39789;53.216;5.624;2023-12-20T04:46:35;27.73;;;7.60;;
53875;SDS011;39789;53.216;5.624;2023-12-20T04:49:00;25.77;;;7.55;;
53875;SDS011;39789;53.216;5.624;2023-12-20T04:51:26;24.42;;;7.13;;
53875;SDS011;39789;53.216;5.624;2023-12-20T04:53:52;22.85;;;6.40;;
53875;SDS011;39789;53.216;5.624;2023-12-20T04:56:18;29.33;;;7.65;;
53875;SDS011;39789;53.216;5.624;2023-12-20T04:58:46;26.67;;;7.50;;
53875;SDS011;39789;53.216;5.624;2023-12-20T05:01:13;24.33;;;7.35;;
53875;SDS011;39789;53.216;5.624;2023-12-20T05:03:39;29.80;;;8.57;;
53875;SDS011;39789;53.216;5.624;2023-12-20T05:06:05;23.48;;;7.65;;
53875;SDS011;39789;53.216;5.624;2023-12-20T05:08:31;26.75;;;7.07;;
53875;SDS011;39789;53.216;5.624;2023-12-20T05:10:56;20.45;;;6.88;;
53875;SDS011;39789;53.216;5.624;2023-12-20T05:13:22;23.70;;;7.15;;
53875;SDS011;39789;53.216;5.624;2023-12-20T05:15:48;29.70;;;7.28;;
53875;SDS011;39789;53.216;5.624;2023-12-20T05:18:13;21.73;;;8.13;;
53875;SDS011;39789;53.216;5.624;2023-12-20T05:20:40;28.40;;;7.20;;
53875;SDS011;39789;53.216;5.624;2023-12-20T05:23:05;28.75;;;8.02;;
53875;SDS011;39789;53.216;5.624;2023-12-20T05:25:31;19.65;;;6.18;;
53875;SDS011;39789;53.216;5.624;2023-12-20T05:27:57;27.38;;;7.60;;
53875;SDS011;39789;53.216;5.624;2023-12-20T05:30:23;21.52;;;7.32;;
53875;SDS011;39789;53.216;5.624;2023-12-20T05:32:49;30.27;;;7.03;;
53875;SDS011;39789;53.216;5.624;2023-12-20T05:35:15;22.95;;;7.22;;
53875;SDS011;39789;53.216;5.624;2023-12-20T05:37:41;23.63;;;7.10;;
53875;SDS011;39789;53.216;5.624;2023-12-20T05:40:07;25.52;;;7.22;;
53875;SDS011;39789;53.216;5.624;2023-12-20T05:42:36;19.83;;;7.57;;
53875;SDS011;39789;53.216;5.624;2023-12-20T05:45:03;25.70;;;7.30;;
53875;SDS011;39789;53.216;5.624;2023-12-20T05:47:29;32.35;;;7.95;;
53875;SDS011;39789;53.216;5.624;2023-12-20T05:49:55;27.13;;;7.75;;
53875;SDS011;39789;53.216;5.624;2023-12-20T05:52:21;30.20;;;9.10;;
53875;SDS011;39789;53.216;5.624;2023-12-20T05:54:47;24.67;;;7.03;;
53875;SDS011;39789;53.216;5.624;2023-12-20T05:57:13;20.90;;;7.07;;
53875;SDS011;39789;53.216;5.624;2023-12-20T05:59:38;27.63;;;7.68;;
53875;SDS011;39789;53.216;5.624;2023-12-20T06:02:04;26.30;;;8.35;;
53875;SDS011;39789;53.216;5.624;2023-12-20T06:04:30;31.00;;;7.30;;
53875;SDS011;39789;53.216;5.624;2023-12-20T06:06:56;31.45;;;7.55;;
53875;SDS011;39789;53.216;5.624;2023-12-20T06:09:22;27.13;;;7.38;;
53875;SDS011;39789;53.216;5.624;2023-12-20T06:11:48;23.48;;;6.90;;
53875;SDS011;39789;53.216;5.624;2023-12-20T06:14:14;27.85;;;8.50;;
53875;SDS011;39789;53.216;5.624;2023-12-20T06:16:40;25.77;;;7.57;;
53875;SDS011;39789;53.216;5.624;2023-12-20T06:19:06;28.98;;;7.80;;
53875;SDS011;39789;53.216;5.624;2023-12-20T06:21:31;25.00;;;7.60;;
53875;SDS011;39789;53.216;5.624;2023-12-20T06:23:58;28.83;;;8.95;;
53875;SDS011;39789;53.216;5.624;2023-12-20T06:26:24;23.73;;;7.90;;
53875;SDS011;39789;53.216;5.624;2023-12-20T06:28:50;28.27;;;7.82;;
53875;SDS011;39789;53.216;5.624;2023-12-20T06:31:15;25.00;;;7.53;;
53875;SDS011;39789;53.216;5.624;2023-12-20T06:33:42;27.23;;;7.32;;
53875;SDS011;39789;53.216;5.624;2023-12-20T06:36:10;19.50;;;6.60;;
53875;SDS011;39789;53.216;5.624;2023-12-20T06:38:37;29.33;;;8.45;;
53875;SDS011;39789;53.216;5.624;2023-12-20T06:41:03;23.75;;;7.15;;
53875;SDS011;39789;53.216;5.624;2023-12-20T06:43:28;24.95;;;7.30;;
53875;SDS011;39789;53.216;5.624;2023-12-20T06:45:55;31.35;;;8.13;;
53875;SDS011;39789;53.216;5.624;2023-12-20T06:48:21;28.02;;;7.53;;
53875;SDS011;39789;53.216;5.624;2023-12-20T06:50:46;29.83;;;7.97;;
53875;SDS011;39789;53.216;5.624;2023-12-20T06:53:12;26.25;;;7.53;;
53875;SDS011;39789;53.216;5.624;2023-12-20T06:55:38;29.80;;;8.57;;
53875;SDS011;39789;53.216;5.624;2023-12-20T06:58:03;18.08;;;6.78;;
53875;SDS011;39789;53.216;5.624;2023-12-20T07:00:29;22.95;;;7.53;;
53875;SDS011;39789;53.216;5.624;2023-12-20T07:02:55;22.90;;;7.28;;
53875;SDS011;39789;53.216;5.624;2023-12-20T07:05:21;28.13;;;8.45;;
53875;SDS011;39789;53.216;5.624;2023-12-20T07:07:47;27.13;;;7.22;;
53875;SDS011;39789;53.216;5.624;2023-12-20T07:10:13;28.95;;;9.07;;
53875;SDS011;39789;53.216;5.624;2023-12-20T07:12:39;26.08;;;7.35;;
53875;SDS011;39789;53.216;5.624;2023-12-20T07:15:05;23.10;;;7.28;;
53875;SDS011;39789;53.216;5.624;2023-12-20T07:17:32;28.08;;;7.68;;
53875;SDS011;39789;53.216;5.624;2023-12-20T07:19:59;30.33;;;7.82;;
53875;SDS011;39789;53.216;5.624;2023-12-20T07:22:28;24.08;;;7.65;;
53875;SDS011;39789;53.216;5.624;2023-12-20T07:24:56;20.40;;;6.88;;
53875;SDS011;39789;53.216;5.624;2023-12-20T07:27:23;26.58;;;7.65;;
53875;SDS011;39789;53.216;5.624;2023-12-20T07:29:49;28.83;;;8.43;;
53875;SDS011;39789;53.216;5.624;2023-12-20T07:32:14;24.65;;;7.53;;
53875;SDS011;39789;53.216;5.624;2023-12-20T07:34:40;25.35;;;7.68;;
53875;SDS011;39789;53.216;5.624;2023-12-20T07:37:06;23.88;;;7.43;;
53875;SDS011;39789;53.216;5.624;2023-12-20T07:39:31;32.63;;;9.07;;
53875;SDS011;39789;53.216;5.624;2023-12-20T07:41:57;22.92;;;6.82;;
53875;SDS011;39789;53.216;5.624;2023-12-20T07:44:25;18.08;;;4.93;;
53875;SDS011;39789;53.216;5.624;2023-12-20T07:46:51;18.05;;;5.07;;
53875;SDS011;39789;53.216;5.624;2023-12-20T07:49:16;6.57;;;2.80;;
53875;SDS011;39789;53.216;5.624;2023-12-20T07:51:43;14.18;;;3.53;;
53875;SDS011;39789;53.216;5.624;2023-12-20T07:54:09;18.63;;;5.88;;
53875;SDS011;39789;53.216;5.624;2023-12-20T07:56:35;19.60;;;5.47;;
53875;SDS011;39789;53.216;5.624;2023-12-20T07:59:00;23.33;;;7.65;;
53875;SDS011;39789;53.216;5.624;2023-12-20T08:01:26;29.98;;;7.28;;
53875;SDS011;39789;53.216;5.624;2023-12-20T08:03:52;30.33;;;9.93;;
53875;SDS011;39789;53.216;5.624;2023-12-20T08:06:18;30.05;;;8.20;;
53875;SDS011;39789;53.216;5.624;2023-12-20T08:08:43;26.23;;;8.40;;
53875;SDS011;39789;53.216;5.624;2023-12-20T08:11:10;29.83;;;8.52;;
53875;SDS011;39789;53.216;5.624;2023-12-20T08:13:36;26.33;;;7.68;;
53875;SDS011;39789;53.216;5.624;2023-12-20T08:16:01;20.15;;;6.50;;
53875;SDS011;39789;53.216;5.624;2023-12-20T08:18:28;25.90;;;7.78;;
53875;SDS011;39789;53.216;5.624;2023-12-20T08:20:54;31.35;;;8.90;;
53875;SDS011;39789;53.216;5.624;2023-12-20T08:23:20;27.42;;;8.70;;
53875;SDS011;39789;53.216;5.624;2023-12-20T08:25:46;28.08;;;8.88;;
53875;SDS011;39789;53.216;5.624;2023-12-20T08:28:13;30.25;;;8.63;;
53875;SDS011;39789;53.216;5.624;2023-12-20T08:30:38;29.40;;;7.80;;
53875;SDS011;39789;53.216;5.624;2023-12-20T08:33:04;22.90;;;6.97;;
53875;SDS011;39789;53.216;5.624;2023-12-20T08:35:33;25.65;;;7.72;;
53875;SDS011;39789;53.216;5.624;2023-12-20T08:37:58;23.38;;;7.35;;
53875;SDS011;39789;53.216;5.624;2023-12-20T08:40:24;26.77;;;7.03;;
53875;SDS011;39789;53.216;5.624;2023-12-20T08:42:49;21.90;;;7.18;;
53875;SDS011;39789;53.216;5.624;2023-12-20T08:45:15;20.50;;;6.07;;
53875;SDS011;39789;53.216;5.624;2023-12-20T08:47:41;16.52;;;5.43;;
53875;SDS011;39789;53.216;5.624;2023-12-20T08:50:07;18.92;;;5.60;;
53875;SDS011;39789;53.216;5.624;2023-12-20T08:52:33;19.90;;;5.35;;
53875;SDS011;39789;53.216;5.624;2023-12-20T08:54:59;7.70;;;2.63;;
53875;SDS011;39789;53.216;5.624;2023-12-20T08:57:24;13.27;;;3.72;;
53875;SDS011;39789;53.216;5.624;2023-12-20T08:59:50;13.70;;;3.90;;
53875;SDS011;39789;53.216;5.624;2023-12-20T09:02:16;14.00;;;3.22;;
53875;SDS011;39789;53.216;5.624;2023-12-20T09:04:42;11.82;;;2.50;;
53875;SDS011;39789;53.216;5.624;2023-12-20T09:07:21;13.02;;;4.10;;
53875;SDS011;39789;53.216;5.624;2023-12-20T09:09:51;14.15;;;3.78;;
53875;SDS011;39789;53.216;5.624;2023-12-20T09:12:17;11.48;;;3.20;;
53875;SDS011;39789;53.216;5.624;2023-12-20T09:14:46;14.98;;;4.63;;
53875;SDS011;39789;53.216;5.624;2023-12-20T09:17:13;13.63;;;3.95;;
53875;SDS011;39789;53.216;5.624;2023-12-20T09:19:40;20.83;;;5.25;;
53875;SDS011;39789;53.216;5.624;2023-12-20T09:22:06;19.23;;;4.07;;
53875;SDS011;39789;53.216;5.624;2023-12-20T09:24:31;17.63;;;4.32;;
53875;SDS011;39789;53.216;5.624;2023-12-20T09:26:57;17.13;;;4.40;;
53875;SDS011;39789;53.216;5.624;2023-12-20T09:29:23;12.02;;;3.40;;
53875;SDS011;39789;53.216;5.624;2023-12-20T09:31:49;13.05;;;4.05;;
53875;SDS011;39789;53.216;5.624;2023-12-20T09:34:15;9.30;;;3.25;;
53875;SDS011;39789;53.216;5.624;2023-12-20T09:36:44;10.75;;;3.22;;
53875;SDS011;39789;53.216;5.624;2023-12-20T09:39:16;12.48;;;4.15;;
53875;SDS011;39789;53.216;5.624;2023-12-20T09:41:51;12.18;;;4.18;;
53875;SDS011;39789;53.216;5.624;2023-12-20T09:44:25;11.20;;;3.53;;
53875;SDS011;39789;53.216;5.624;2023-12-20T09:46:54;13.73;;;3.85;;
53875;SDS011;39789;53.216;5.624;2023-12-20T09:49:20;12.27;;;3.13;;
53875;SDS011;39789;53.216;5.624;2023-12-20T09:51:47;11.25;;;3.38;;
53875;SDS011;39789;53.216;5.624;2023-12-20T09:54:16;11.35;;;3.25;;
53875;SDS011;39789;53.216;5.624;2023-12-20T09:56:43;11.60;;;3.20;;
53875;SDS011;39789;53.216;5.624;2023-12-20T09:59:10;9.48;;;3.30;;
53875;SDS011;39789;53.216;5.624;2023-12-20T10:01:36;11.45;;;3.80;;
53875;SDS011;39789;53.216;5.624;2023-12-20T10:04:05;14.23;;;3.90;;
53875;SDS011;39789;53.216;5.624;2023-12-20T10:06:34;11.90;;;4.05;;
53875;SDS011;39789;53.216;5.624;2023-12-20T10:09:10;13.52;;;4.00;;
53875;SDS011;39789;53.216;5.624;2023-12-20T10:11:37;13.07;;;3.83;;
53875;SDS011;39789;53.216;5.624;2023-12-20T10:14:04;12.27;;;4.15;;
53875;SDS011;39789;53.216;5.624;2023-12-20T10:16:30;12.70;;;4.30;;
53875;SDS011;39789;53.216;5.624;2023-12-20T10:18:57;14.32;;;3.78;;
53875;SDS011;39789;53.216;5.624;2023-12-20T10:21:24;11.60;;;3.97;;
53875;SDS011;39789;53.216;5.624;2023-12-20T10:23:56;10.43;;;3.40;;
53875;SDS011;39789;53.216;5.624;2023-12-20T10:26:23;9.98;;;3.38;;
53875;SDS011;39789;53.216;5.624;2023-12-20T10:28:53;14.70;;;3.78;;
53875;SDS011;39789;53.216;5.624;2023-12-20T10:31:29;11.18;;;3.50;;
53875;SDS011;39789;53.216;5.624;2023-12-20T10:33:57;14.18;;;3.47;;
53875;SDS011;39789;53.216;5.624;2023-12-20T10:36:26;22.52;;;3.53;;
53875;SDS011;39789;53.216;5.624;2023-12-20T10:38:56;9.63;;;3.42;;
53875;SDS011;39789;53.216;5.624;2023-12-20T10:41:26;13.07;;;4.13;;
53875;SDS011;39789;53.216;5.624;2023-12-20T10:43:55;13.50;;;3.60;;
53875;SDS011;39789;53.216;5.624;2023-12-20T10:46:29;13.25;;;3.22;;
53875;SDS011;39789;53.216;5.624;2023-12-20T10:48:56;12.48;;;3.72;;
53875;SDS011;39789;53.216;5.624;2023-12-20T10:51:22;11.02;;;3.20;;
53875;SDS011;39789;53.216;5.624;2023-12-20T10:53:49;16.08;;;4.05;;
53875;SDS011;39789;53.216;5.624;2023-12-20T10:56:19;17.45;;;4.68;;
53875;SDS011;39789;53.216;5.624;2023-12-20T10:58:49;12.98;;;4.68;;
53875;SDS011;39789;53.216;5.624;2023-12-20T11:01:16;16.88;;;4.25;;
53875;SDS011;39789;53.216;5.624;2023-12-20T11:03:52;10.25;;;3.50;;
53875;SDS011;39789;53.216;5.624;2023-12-20T11:09:31;13.98;;;3.95;;
53875;SDS011;39789;53.216;5.624;2023-12-20T11:12:08;11.25;;;3.58;;
53875;SDS011;39789;53.216;5.624;2023-12-20T11:14:43;14.90;;;5.22;;
53875;SDS011;39789;53.216;5.624;2023-12-20T11:17:12;14.65;;;3.92;;
53875;SDS011;39789;53.216;5.624;2023-12-20T11:20:12;19.10;;;4.70;;
53875;SDS011;39789;53.216;5.624;2023-12-20T11:22:33;17.48;;;4.68;;
53875;SDS011;39789;53.216;5.624;2023-12-20T11:25:04;11.45;;;4.03;;
53875;SDS011;39789;53.216;5.624;2023-12-20T11:27:35;15.52;;;4.13;;
53875;SDS011;39789;53.216;5.624;2023-12-20T11:30:04;15.18;;;4.78;;
53875;SDS011;39789;53.216;5.624;2023-12-20T11:32:35;17.13;;;4.28;;
53875;SDS011;39789;53.216;5.624;2023-12-20T11:35:16;17.83;;;4.18;;
53875;SDS011;39789;53.216;5.624;2023-12-20T11:37:44;15.85;;;4.78;;
53875;SDS011;39789;53.216;5.624;2023-12-20T11:40:16;22.00;;;4.35;;
53875;SDS011;39789;53.216;5.624;2023-12-20T11:42:45;17.63;;;4.80;;
53875;SDS011;39789;53.216;5.624;2023-12-20T11:45:15;19.05;;;4.53;;
53875;SDS011;39789;53.216;5.624;2023-12-20T11:47:47;13.73;;;4.47;;
53875;SDS011;39789;53.216;5.624;2023-12-20T11:50:20;22.17;;;5.03;;
53875;SDS011;39789;53.216;5.624;2023-12-20T11:52:47;19.38;;;4.68;;
53875;SDS011;39789;53.216;5.624;2023-12-20T11:55:16;13.65;;;4.50;;
53875;SDS011;39789;53.216;5.624;2023-12-20T11:57:42;11.80;;;3.63;;
53875;SDS011;39789;53.216;5.624;2023-12-20T12:00:10;16.50;;;3.97;;
53875;SDS011;39789;53.216;5.624;2023-12-20T12:02:38;12.80;;;3.63;;
53875;SDS011;39789;53.216;5.624;2023-12-20T12:05:04;12.50;;;3.80;;
53875;SDS011;39789;53.216;5.624;2023-12-20T12:07:31;12.65;;;3.63;;
53875;SDS011;39789;53.216;5.624;2023-12-20T12:09:57;13.00;;;3.50;;
53875;SDS011;39789;53.216;5.624;2023-12-20T12:12:26;15.30;;;3.20;;
53875;SDS011;39789;53.216;5.624;2023-12-20T12:14:53;20.23;;;3.60;;
53875;SDS011;39789;53.216;5.624;2023-12-20T12:17:19;14.07;;;3.38;;
53875;SDS011;39789;53.216;5.624;2023-12-20T12:19:45;11.00;;;3.40;;
53875;SDS011;39789;53.216;5.624;2023-12-20T12:22:12;10.18;;;2.78;;
53875;SDS011;39789;53.216;5.624;2023-12-20T12:27:11;12.48;;;3.40;;
53875;SDS011;39789;53.216;5.624;2023-12-20T12:29:38;12.77;;;3.25;;
53875;SDS011;39789;53.216;5.624;2023-12-20T12:32:07;11.95;;;3.17;;
53875;SDS011;39789;53.216;5.624;2023-12-20T12:34:34;10.07;;;3.30;;
53875;SDS011;39789;53.216;5.624;2023-12-20T12:37:00;13.18;;;3.25;;
53875;SDS011;39789;53.216;5.624;2023-12-20T12:39:27;11.50;;;3.13;;
53875;SDS011;39789;53.216;5.624;2023-12-20T12:41:53;14.55;;;3.20;;
53875;SDS011;39789;53.216;5.624;2023-12-20T12:44:21;15.13;;;3.53;;
53875;SDS011;39789;53.216;5.624;2023-12-20T12:46:53;12.25;;;3.25;;
53875;SDS011;39789;53.216;5.624;2023-12-20T12:49:19;12.18;;;3.08;;
53875;SDS011;39789;53.216;5.624;2023-12-20T12:51:48;11.18;;;3.40;;
53875;SDS011;39789;53.216;5.624;2023-12-20T12:54:14;8.57;;;2.60;;
53875;SDS011;39789;53.216;5.624;2023-12-20T12:56:42;10.23;;;2.85;;
53875;SDS011;39789;53.216;5.624;2023-12-20T12:59:08;12.18;;;3.17;;
53875;SDS011;39789;53.216;5.624;2023-12-20T13:01:34;8.82;;;3.20;;
53875;SDS011;39789;53.216;5.624;2023-12-20T13:04:00;7.00;;;2.50;;
53875;SDS011;39789;53.216;5.624;2023-12-20T13:06:28;11.88;;;2.67;;
53875;SDS011;39789;53.216;5.624;2023-12-20T13:08:53;10.27;;;3.00;;
53875;SDS011;39789;53.216;5.624;2023-12-20T13:11:20;8.48;;;2.25;;
53875;SDS011;39789;53.216;5.624;2023-12-20T13:13:49;11.05;;;2.70;;
53875;SDS011;39789;53.216;5.624;2023-12-20T13:16:14;11.95;;;2.50;;
53875;SDS011;39789;53.216;5.624;2023-12-20T13:18:40;10.20;;;2.58;;
53875;SDS011;39789;53.216;5.624;2023-12-20T13:21:08;8.32;;;2.88;;
53875;SDS011;39789;53.216;5.624;2023-12-20T13:23:34;6.40;;;2.30;;
53875;SDS011;39789;53.216;5.624;2023-12-20T13:26:03;11.50;;;3.05;;
53875;SDS011;39789;53.216;5.624;2023-12-20T13:28:28;10.70;;;2.50;;
53875;SDS011;39789;53.216;5.624;2023-12-20T13:30:54;10.93;;;2.70;;
53875;SDS011;39789;53.216;5.624;2023-12-20T13:33:20;11.73;;;2.97;;
53875;SDS011;39789;53.216;5.624;2023-12-20T13:35:46;8.38;;;2.47;;
53875;SDS011;39789;53.216;5.624;2023-12-20T13:38:12;7.57;;;2.50;;
53875;SDS011;39789;53.216;5.624;2023-12-20T13:40:38;9.23;;;2.30;;
53875;SDS011;39789;53.216;5.624;2023-12-20T13:43:04;9.32;;;2.50;;
53875;SDS011;39789;53.216;5.624;2023-12-20T13:45:31;8.38;;;2.80;;
53875;SDS011;39789;53.216;5.624;2023-12-20T13:47:56;11.23;;;3.08;;
53875;SDS011;39789;53.216;5.624;2023-12-20T13:50:25;9.95;;;2.95;;
53875;SDS011;39789;53.216;5.624;2023-12-20T13:52:54;13.73;;;3.58;;
53875;SDS011;39789;53.216;5.624;2023-12-20T13:55:19;9.70;;;3.17;;
53875;SDS011;39789;53.216;5.624;2023-12-20T13:57:50;9.55;;;2.90;;
53875;SDS011;39789;53.216;5.624;2023-12-20T14:00:16;11.35;;;4.40;;
53875;SDS011;39789;53.216;5.624;2023-12-20T14:02:42;12.50;;;3.65;;
53875;SDS011;39789;53.216;5.624;2023-12-20T14:05:11;10.00;;;3.17;;
53875;SDS011;39789;53.216;5.624;2023-12-20T14:07:38;16.63;;;4.40;;
53875;SDS011;39789;53.216;5.624;2023-12-20T14:10:07;17.05;;;4.60;;
53875;SDS011;39789;53.216;5.624;2023-12-20T14:12:33;23.67;;;5.95;;
53875;SDS011;39789;53.216;5.624;2023-12-20T14:15:01;22.80;;;6.38;;
53875;SDS011;39789;53.216;5.624;2023-12-20T14:17:27;20.35;;;6.05;;
53875;SDS011;39789;53.216;5.624;2023-12-20T14:19:53;25.20;;;6.05;;
53875;SDS011;39789;53.216;5.624;2023-12-20T14:22:19;18.73;;;5.65;;
53875;SDS011;39789;53.216;5.624;2023-12-20T14:24:45;19.80;;;6.43;;
53875;SDS011;39789;53.216;5.624;2023-12-20T14:27:11;23.25;;;5.95;;
53875;SDS011;39789;53.216;5.624;2023-12-20T14:29:37;24.45;;;6.95;;
53875;SDS011;39789;53.216;5.624;2023-12-20T14:32:05;24.17;;;6.43;;
53875;SDS011;39789;53.216;5.624;2023-12-20T14:34:31;24.00;;;7.03;;
53875;SDS011;39789;53.216;5.624;2023-12-20T14:36:57;19.23;;;6.10;;
53875;SDS011;39789;53.216;5.624;2023-12-20T14:39:22;18.50;;;5.80;;